Aérodrome :
LOGIN :

S'inscrire | Disclaimer

   EN    FR    IT 

 










Légende :    VFR   VFR Marginal   IFR   IFR Intensif   IFR Très Intensif
Visi : 
Plafond : 
>= 8 km
>= 3000ft
5 à 8 km
1000 à 3000 ft
1500m à 5 km
500 à 1000 ft
800 à 1500m
200 à 500 ft
< 800m
< 200 ft
Symboles :   Orages  Brouillard  Fortes neiges  Fortes précipitations  Vent > 20 kt
SIGMETs :   Divers  Orages  Givrage  Turbulence  Onde Orograph.  Cendres Volcan.







- Altitude de l'aérodrome : 74 ft
- Code IATA : EIN


EHEH - Eindhoven

DERNIER METAR :
  • 261725Z AUTO 33013KT 260V010 9999 FEW084 SCT091 09/01 Q1013 BLU 33008KT 9999 SCT045 BKN050 TEMPO FEW015 SCT020CB BKN025

METARs EXPIRÉS :
  • 261655Z AUTO 32009KT 240V030 9999 SCT080 SCT150 09/M01 Q1013 BLU 33008KT 9999 SCT045 BKN050 TEMPO FEW015 SCT020CB BKN025
  • 261625Z AUTO 31008KT 290V020 9999 FEW047 11/M01 Q1013 BLU 33008KT 9999 SCT045 BKN050 TEMPO VRB12G22KT 4500 SHRAGS FEW015 SCT020CB BKN025
  • 261555Z AUTO 30009KT 240V010 9999 BKN076 OVC081 11/00 Q1013 BLU 33008KT 9999 SCT045 BKN050 TEMPO VRB12G22KT 4500 SHRAGS FEW015 SCT020CB BKN025
  • 261525Z AUTO 33009KT 270V060 9999 FEW046 SCT050 OVC083 11/01 Q1013 BLU 33008KT 9999 SCT045 BKN050 TEMPO VRB12G22KT 4500 SHRAGS FEW015 SCT020CB BKN025
  • 261455Z AUTO 30010KT 230V030 9999 SCT048 SCT054 BKN072 10/00 Q1013 BLU 33008KT 9999 SCT045 BKN050 TEMPO VRB12G22KT 4500 SHRAGS FEW015 SCT020CB BKN025

TAF TAF EHEH
Valide du 26 à 12h jusqu'au 27 à 18h UTC


261115Z 2612/2718 28005KT 9999 SCT030 SCT050
TEMPO 2612/2618 33012KT FEW020CB BKN025
PROB30
TEMPO 2613/2617 02012G25KT 4500 SHRAGS TSRA FEW012 SCT018CB BKN020
PROB30 2703/2706 4000 BR MIFG
TEMPO 2709/2716 30010G22KT SCT030CB SCT035
Pas de NOTAMs connus pour ce terrain.



MET'MAP, la Météo Aéronautique d'un coup d'oeil ! - Copyright ORBIFLY Décembre 2007 - Disclaimer

ORBIFLY MET'MAP TEAM :

Programmation & Développement : Alexandra Zaïnal
Conception & Développement : Baudouin d'Aumeries
Co-Programmation & Développement : Marc-Olivier Méhu
Soutien technique & logistique : Manuel Goepfert

Contact : metmap@orbifly.com




SOURCES & CREDITS :

   NOAA